Aviation Digital Data Service (ADDS)

Output produced by METARs form (0656 UTC 20 March 2019)
found at http://www.aviationweather.gov/metar/data/
 
METAR text: TJSJ 200556Z VRB03KT 10SM FEW042 SCT050 24/19 A2999 RMK AO2 SLP155 T02390194 10256 20239 58015
Conditions at: TJSJ (SAN JUAN/WFO , PR, US) observed 0556 UTC 20 March 2019
Temperature: 23.9°C (75°F)
Dewpoint: 19.4°C (67°F) [RH = 76%]
Pressure (altimeter): 29.99 inches Hg (1015.7 mb)
[Sea-level pressure: 1015.5 mb]
Winds: variable direction winds at 3 MPH (3 knots; 1.5 m/s)
Visibility: 10 or more miles (16+ km)
Ceiling: at least 12,000 feet AGL
Clouds: few clouds at 4200 feet AGL
scattered clouds at 5000 feet AGL
Weather: no significant weather observed at this time

METAR text: TJSJ 200456Z 00000KT 10SM SCT040 SCT055 24/19 A3002 RMK AO2 SLP163 T02440189
Conditions at: TJSJ (SAN JUAN/WFO , PR, US) observed 0456 UTC 20 March 2019
Temperature: 24.4°C (76°F)
Dewpoint: 18.9°C (66°F) [RH = 71%]
Pressure (altimeter): 30.02 inches Hg (1016.7 mb)
[Sea-level pressure: 1016.3 mb]
Winds: calm
Visibility: 10 or more miles (16+ km)
Ceiling: at least 12,000 feet AGL
Clouds: scattered clouds at 4000 feet AGL
scattered clouds at 5500 feet AGL
Weather: no significant weather observed at this time

METAR text: TJSJ 200356Z 00000KT 10SM FEW035 FEW042 24/18 A3003 RMK AO2 SLP168 T02440183 403060211
Conditions at: TJSJ (SAN JUAN/WFO , PR, US) observed 0356 UTC 20 March 2019
Temperature: 24.4°C (76°F)
Dewpoint: 18.3°C (65°F) [RH = 69%]
Pressure (altimeter): 30.03 inches Hg (1017.0 mb)
[Sea-level pressure: 1016.8 mb]
Winds: calm
Visibility: 10 or more miles (16+ km)
Ceiling: at least 12,000 feet AGL
Clouds: few clouds at 3500 feet AGL
few clouds at 4200 feet AGL
Weather: no significant weather observed at this time

METAR text: TJSJ 200256Z 14004KT 10SM FEW036 24/19 A3004 RMK AO2 SLP170 T02440189 50009
Conditions at: TJSJ (SAN JUAN/WFO , PR, US) observed 0256 UTC 20 March 2019
Temperature: 24.4°C (76°F)
Dewpoint: 18.9°C (66°F) [RH = 71%]
Pressure (altimeter): 30.04 inches Hg (1017.4 mb)
[Sea-level pressure: 1017.0 mb]
Winds: from the SE (140 degrees) at 5 MPH (4 knots; 2.1 m/s)
Visibility: 10 or more miles (16+ km)
Ceiling: at least 12,000 feet AGL
Clouds: few clouds at 3600 feet AGL
Weather: no significant weather observed at this time

METAR text: TJSJ 200156Z 11005KT 10SM FEW036 FEW060 25/19 A3004 RMK AO2 SLP171 T02500189
Conditions at: TJSJ (SAN JUAN/WFO , PR, US) observed 0156 UTC 20 March 2019
Temperature: 25.0°C (77°F)
Dewpoint: 18.9°C (66°F) [RH = 69%]
Pressure (altimeter): 30.04 inches Hg (1017.4 mb)
[Sea-level pressure: 1017.1 mb]
Winds: from the ESE (110 degrees) at 6 MPH (5 knots; 2.6 m/s)
Visibility: 10 or more miles (16+ km)
Ceiling: at least 12,000 feet AGL
Clouds: few clouds at 3600 feet AGL
few clouds at 6000 feet AGL
Weather: no significant weather observed at this time

METAR text: TJSJ 200056Z 11005KT 10SM FEW065 24/19 A3003 RMK AO2 SLP167 T02440189
Conditions at: TJSJ (SAN JUAN/WFO , PR, US) observed 0056 UTC 20 March 2019
Temperature: 24.4°C (76°F)
Dewpoint: 18.9°C (66°F) [RH = 71%]
Pressure (altimeter): 30.03 inches Hg (1017.0 mb)
[Sea-level pressure: 1016.7 mb]
Winds: from the ESE (110 degrees) at 6 MPH (5 knots; 2.6 m/s)
Visibility: 10 or more miles (16+ km)
Ceiling: at least 12,000 feet AGL
Clouds: few clouds at 6500 feet AGL
Weather: no significant weather observed at this time

METAR text: TJSJ 192356Z 11007KT 10SM FEW042 SCT070 26/19 A3001 RMK AO2 SLP160 T02560189 10300 20256 53015
Conditions at: TJSJ (SAN JUAN/WFO , PR, US) observed 2356 UTC 19 March 2019
Temperature: 25.6°C (78°F)
Dewpoint: 18.9°C (66°F) [RH = 67%]
Pressure (altimeter): 30.01 inches Hg (1016.3 mb)
[Sea-level pressure: 1016.0 mb]
Winds: from the ESE (110 degrees) at 8 MPH (7 knots; 3.6 m/s)
Visibility: 10 or more miles (16+ km)
Ceiling: at least 12,000 feet AGL
Clouds: few clouds at 4200 feet AGL
scattered clouds at 7000 feet AGL
Weather: no significant weather observed at this time

METAR text: TJSJ 192256Z 10010KT 10SM FEW033 SCT060 SCT100 26/19 A2999 RMK AO2 SLP153 T02610194
Conditions at: TJSJ (SAN JUAN/WFO , PR, US) observed 2256 UTC 19 March 2019
Temperature: 26.1°C (79°F)
Dewpoint: 19.4°C (67°F) [RH = 67%]
Pressure (altimeter): 29.99 inches Hg (1015.7 mb)
[Sea-level pressure: 1015.3 mb]
Winds: from the E (100 degrees) at 12 MPH (10 knots; 5.1 m/s)
Visibility: 10 or more miles (16+ km)
Ceiling: at least 12,000 feet AGL
Clouds: few clouds at 3300 feet AGL
scattered clouds at 6000 feet AGL
scattered clouds at 10000 feet AGL
Weather: no significant weather observed at this time

METAR text: TJSJ 192156Z 08016KT 10SM FEW034 SCT060 SCT120 27/20 A2997 RMK AO2 SLP147 T02670200
Conditions at: TJSJ (SAN JUAN/WFO , PR, US) observed 2156 UTC 19 March 2019
Temperature: 26.7°C (80°F)
Dewpoint: 20.0°C (68°F) [RH = 67%]
Pressure (altimeter): 29.97 inches Hg (1015.0 mb)
[Sea-level pressure: 1014.7 mb]
Winds: from the E (80 degrees) at 18 MPH (16 knots; 8.2 m/s)
Visibility: 10 or more miles (16+ km)
Ceiling: at least 12,000 feet AGL
Clouds: few clouds at 3400 feet AGL
scattered clouds at 6000 feet AGL
scattered clouds at 12000 feet AGL
Weather: no significant weather observed at this time

METAR text: TJSJ 192056Z 08016KT 10SM FEW060 SCT085 SCT120 28/17 A2997 RMK AO2 SLP146 T02830172 55013
Conditions at: TJSJ (SAN JUAN/WFO , PR, US) observed 2056 UTC 19 March 2019
Temperature: 28.3°C (83°F)
Dewpoint: 17.2°C (63°F) [RH = 51%]
Pressure (altimeter): 29.97 inches Hg (1015.0 mb)
[Sea-level pressure: 1014.6 mb]
Winds: from the E (80 degrees) at 18 MPH (16 knots; 8.2 m/s)
Visibility: 10 or more miles (16+ km)
Ceiling: at least 12,000 feet AGL
Clouds: few clouds at 6000 feet AGL
scattered clouds at 8500 feet AGL
scattered clouds at 12000 feet AGL
Weather: no significant weather observed at this time

METAR text: TJSJ 191956Z 09016KT 10SM SCT060 SCT100 28/18 A2996 RMK AO2 SLP145 T02830178
Conditions at: TJSJ (SAN JUAN/WFO , PR, US) observed 1956 UTC 19 March 2019
Temperature: 28.3°C (83°F)
Dewpoint: 17.8°C (64°F) [RH = 53%]
Pressure (altimeter): 29.96 inches Hg (1014.6 mb)
[Sea-level pressure: 1014.5 mb]
Winds: from the E (90 degrees) at 18 MPH (16 knots; 8.2 m/s)
Visibility: 10 or more miles (16+ km)
Ceiling: at least 12,000 feet AGL
Clouds: scattered clouds at 6000 feet AGL
scattered clouds at 10000 feet AGL
Weather: no significant weather observed at this time

METAR text: TJSJ 191856Z 07015KT 10SM SCT060 SCT095 28/19 A2998 RMK AO2 SLP151 T02830194
Conditions at: TJSJ (SAN JUAN/WFO , PR, US) observed 1856 UTC 19 March 2019
Temperature: 28.3°C (83°F)
Dewpoint: 19.4°C (67°F) [RH = 59%]
Pressure (altimeter): 29.98 inches Hg (1015.3 mb)
[Sea-level pressure: 1015.1 mb]
Winds: from the ENE (70 degrees) at 17 MPH (15 knots; 7.7 m/s)
Visibility: 10 or more miles (16+ km)
Ceiling: at least 12,000 feet AGL
Clouds: scattered clouds at 6000 feet AGL
scattered clouds at 9500 feet AGL
Weather: no significant weather observed at this time

METAR text: TJSJ 191756Z 07017KT 10SM SCT055 30/20 A3000 RMK AO2 SLP159 T03000200 10306 20244 58022
Conditions at: TJSJ (SAN JUAN/WFO , PR, US) observed 1756 UTC 19 March 2019
Temperature: 30.0°C (86°F)
Dewpoint: 20.0°C (68°F) [RH = 55%]
Pressure (altimeter): 30.00 inches Hg (1016.0 mb)
[Sea-level pressure: 1015.9 mb]
Winds: from the ENE (70 degrees) at 20 MPH (17 knots; 8.7 m/s)
Visibility: 10 or more miles (16+ km)
Ceiling: at least 12,000 feet AGL
Clouds: scattered clouds at 5500 feet AGL
Weather: no significant weather observed at this time

METAR text: TJSJ 191656Z 08015G20KT 10SM FEW043 FEW055 29/20 A3003 RMK AO2 SLP168 T02940200
Conditions at: TJSJ (SAN JUAN/WFO , PR, US) observed 1656 UTC 19 March 2019
Temperature: 29.4°C (85°F)
Dewpoint: 20.0°C (68°F) [RH = 57%]
Pressure (altimeter): 30.03 inches Hg (1017.0 mb)
[Sea-level pressure: 1016.8 mb]
Winds: from the E (80 degrees) at 17 MPH (15 knots; 7.7 m/s)
gusting to 23 MPH (20 knots; 10.3 m/s)
Visibility: 10 or more miles (16+ km)
Ceiling: at least 12,000 feet AGL
Clouds: few clouds at 4300 feet AGL
few clouds at 5500 feet AGL
Weather: no significant weather observed at this time

METAR text: TJSJ 191556Z 10010KT 10SM SCT055 29/17 A3006 RMK AO2 SLP177 T02940172
Conditions at: TJSJ (SAN JUAN/WFO , PR, US) observed 1556 UTC 19 March 2019
Temperature: 29.4°C (85°F)
Dewpoint: 17.2°C (63°F) [RH = 48%]
Pressure (altimeter): 30.06 inches Hg (1018.0 mb)
[Sea-level pressure: 1017.7 mb]
Winds: from the E (100 degrees) at 12 MPH (10 knots; 5.1 m/s)
Visibility: 10 or more miles (16+ km)
Ceiling: at least 12,000 feet AGL
Clouds: scattered clouds at 5500 feet AGL
Weather: no significant weather observed at this time

METAR text: TJSJ 191456Z 10011G17KT 10SM SCT050 29/18 A3007 RMK AO2 SLP181 T02890178 50009
Conditions at: TJSJ (SAN JUAN/WFO , PR, US) observed 1456 UTC 19 March 2019
Temperature: 28.9°C (84°F)
Dewpoint: 17.8°C (64°F) [RH = 51%]
Pressure (altimeter): 30.07 inches Hg (1018.4 mb)
[Sea-level pressure: 1018.1 mb]
Winds: from the E (100 degrees) at 13 MPH (11 knots; 5.7 m/s)
gusting to 20 MPH (17 knots; 8.7 m/s)
Visibility: 10 or more miles (16+ km)
Ceiling: at least 12,000 feet AGL
Clouds: scattered clouds at 5000 feet AGL
Weather: no significant weather observed at this time

METAR text: TJSJ 191356Z 09014KT 10SM FEW040 FEW070 28/17 A3007 RMK AO2 SLP183 T02830167
Conditions at: TJSJ (SAN JUAN/WFO , PR, US) observed 1356 UTC 19 March 2019
Temperature: 28.3°C (83°F)
Dewpoint: 16.7°C (62°F) [RH = 49%]
Pressure (altimeter): 30.07 inches Hg (1018.4 mb)
[Sea-level pressure: 1018.3 mb]
Winds: from the E (90 degrees) at 16 MPH (14 knots; 7.2 m/s)
Visibility: 10 or more miles (16+ km)
Ceiling: at least 12,000 feet AGL
Clouds: few clouds at 4000 feet AGL
few clouds at 7000 feet AGL
Weather: no significant weather observed at this time

METAR text: TJSJ 191256Z 10006KT 10SM FEW040 FEW065 27/18 A3007 RMK AO2 SLP181 T02670183
Conditions at: TJSJ (SAN JUAN/WFO , PR, US) observed 1256 UTC 19 March 2019
Temperature: 26.7°C (80°F)
Dewpoint: 18.3°C (65°F) [RH = 60%]
Pressure (altimeter): 30.07 inches Hg (1018.4 mb)
[Sea-level pressure: 1018.1 mb]
Winds: from the E (100 degrees) at 7 MPH (6 knots; 3.1 m/s)
Visibility: 10 or more miles (16+ km)
Ceiling: at least 12,000 feet AGL
Clouds: few clouds at 4000 feet AGL
few clouds at 6500 feet AGL
Weather: no significant weather observed at this time

METAR text: TJSJ 191156Z 10003KT 10SM FEW038 FEW055 24/19 A3004 RMK AO2 SLP172 T02440189 10244 20211 53018
Conditions at: TJSJ (SAN JUAN/WFO , PR, US) observed 1156 UTC 19 March 2019
Temperature: 24.4°C (76°F)
Dewpoint: 18.9°C (66°F) [RH = 71%]
Pressure (altimeter): 30.04 inches Hg (1017.4 mb)
[Sea-level pressure: 1017.2 mb]
Winds: from the E (100 degrees) at 3 MPH (3 knots; 1.5 m/s)
Visibility: 10 or more miles (16+ km)
Ceiling: at least 12,000 feet AGL
Clouds: few clouds at 3800 feet AGL
few clouds at 5500 feet AGL
Weather: no significant weather observed at this time

METAR text: TJSJ 191056Z 00000KT 10SM SCT033 SCT048 SCT070 22/18 A3002 RMK AO2 SLP164 T02220183
Conditions at: TJSJ (SAN JUAN/WFO , PR, US) observed 1056 UTC 19 March 2019
Temperature: 22.2°C (72°F)
Dewpoint: 18.3°C (65°F) [RH = 79%]
Pressure (altimeter): 30.02 inches Hg (1016.7 mb)
[Sea-level pressure: 1016.4 mb]
Winds: calm
Visibility: 10 or more miles (16+ km)
Ceiling: at least 12,000 feet AGL
Clouds: scattered clouds at 3300 feet AGL
scattered clouds at 4800 feet AGL
scattered clouds at 7000 feet AGL
Weather: no significant weather observed at this time

METAR text: TJSJ 190956Z 00000KT 10SM FEW028 FEW038 FEW065 21/18 A3000 RMK AO2 SLP157 T02110178
Conditions at: TJSJ (SAN JUAN/WFO , PR, US) observed 0956 UTC 19 March 2019
Temperature: 21.1°C (70°F)
Dewpoint: 17.8°C (64°F) [RH = 81%]
Pressure (altimeter): 30.00 inches Hg (1016.0 mb)
[Sea-level pressure: 1015.7 mb]
Winds: calm
Visibility: 10 or more miles (16+ km)
Ceiling: at least 12,000 feet AGL
Clouds: few clouds at 2800 feet AGL
few clouds at 3800 feet AGL
few clouds at 6500 feet AGL
Weather: no significant weather observed at this time

METAR text: TJSJ 190856Z 00000KT 10SM FEW035 FEW055 22/18 A2999 RMK AO2 SLP154 T02220178 56009
Conditions at: TJSJ (SAN JUAN/WFO , PR, US) observed 0856 UTC 19 March 2019
Temperature: 22.2°C (72°F)
Dewpoint: 17.8°C (64°F) [RH = 76%]
Pressure (altimeter): 29.99 inches Hg (1015.7 mb)
[Sea-level pressure: 1015.4 mb]
Winds: calm
Visibility: 10 or more miles (16+ km)
Ceiling: at least 12,000 feet AGL
Clouds: few clouds at 3500 feet AGL
few clouds at 5500 feet AGL
Weather: no significant weather observed at this time

METAR text: TJSJ 190756Z 14003KT 10SM FEW032 22/18 A2999 RMK AO2 SLP154 T02220178
Conditions at: TJSJ (SAN JUAN/WFO , PR, US) observed 0756 UTC 19 March 2019
Temperature: 22.2°C (72°F)
Dewpoint: 17.8°C (64°F) [RH = 76%]
Pressure (altimeter): 29.99 inches Hg (1015.7 mb)
[Sea-level pressure: 1015.4 mb]
Winds: from the SE (140 degrees) at 3 MPH (3 knots; 1.5 m/s)
Visibility: 10 or more miles (16+ km)
Ceiling: at least 12,000 feet AGL
Clouds: few clouds at 3200 feet AGL
Weather: no significant weather observed at this time

METAR text: TJSJ 190656Z 00000KT 10SM FEW043 22/18 A3000 RMK AO2 SLP158 T02170183
Conditions at: TJSJ (SAN JUAN/WFO , PR, US) observed 0656 UTC 19 March 2019
Temperature: 21.7°C (71°F)
Dewpoint: 18.3°C (65°F) [RH = 81%]
Pressure (altimeter): 30.00 inches Hg (1016.0 mb)
[Sea-level pressure: 1015.8 mb]
Winds: calm
Visibility: 10 or more miles (16+ km)
Ceiling: at least 12,000 feet AGL
Clouds: few clouds at 4300 feet AGL
Weather: no significant weather observed at this time

METAR text: TJSJ 190556Z 00000KT 10SM FEW040 23/18 A3002 RMK AO2 SLP163 60000 T02280183 10250 20228 58012
Conditions at: TJSJ (SAN JUAN/WFO , PR, US) observed 0556 UTC 19 March 2019
Temperature: 22.8°C (73°F)
Dewpoint: 18.3°C (65°F) [RH = 76%]
Pressure (altimeter): 30.02 inches Hg (1016.7 mb)
[Sea-level pressure: 1016.3 mb]
Winds: calm
Visibility: 10 or more miles (16+ km)
Ceiling: at least 12,000 feet AGL
Clouds: few clouds at 4000 feet AGL
Weather: no significant weather observed at this time

METAR text: TJSJ 190456Z 00000KT 10SM CLR 23/18 A3003 RMK AO2 SLP169 T02330183
Conditions at: TJSJ (SAN JUAN/WFO , PR, US) observed 0456 UTC 19 March 2019
Temperature: 23.3°C (74°F)
Dewpoint: 18.3°C (65°F) [RH = 74%]
Pressure (altimeter): 30.03 inches Hg (1017.0 mb)
[Sea-level pressure: 1016.9 mb]
Winds: calm
Visibility: 10 or more miles (16+ km)
Ceiling: at least 12,000 feet AGL
Clouds: sky clear below 12,000 feet AGL
Weather: no significant weather observed at this time

METAR text: TJSJ 190356Z 00000KT 10SM CLR 24/18 A3004 RMK AO2 SLP173 T02390183 403000228
Conditions at: TJSJ (SAN JUAN/WFO , PR, US) observed 0356 UTC 19 March 2019
Temperature: 23.9°C (75°F)
Dewpoint: 18.3°C (65°F) [RH = 71%]
Pressure (altimeter): 30.04 inches Hg (1017.4 mb)
[Sea-level pressure: 1017.3 mb]
Winds: calm
Visibility: 10 or more miles (16+ km)
Ceiling: at least 12,000 feet AGL
Clouds: sky clear below 12,000 feet AGL
Weather: no significant weather observed at this time

METAR text: TJSJ 190256Z 10004KT 10SM FEW038 23/18 A3005 RMK AO2 RAB04E15 SLP175 P0000 60000 T02280183 51012
Conditions at: TJSJ (SAN JUAN/WFO , PR, US) observed 0256 UTC 19 March 2019
Temperature: 22.8°C (73°F)
Dewpoint: 18.3°C (65°F) [RH = 76%]
Pressure (altimeter): 30.05 inches Hg (1017.7 mb)
[Sea-level pressure: 1017.5 mb]
Winds: from the E (100 degrees) at 5 MPH (4 knots; 2.1 m/s)
Visibility: 10 or more miles (16+ km)
Ceiling: at least 12,000 feet AGL
Clouds: few clouds at 3800 feet AGL
Weather: no significant weather observed at this time

METAR text: TJSJ 190156Z 15003KT 10SM FEW060 24/18 A3005 RMK AO2 SLP174 T02440183
Conditions at: TJSJ (SAN JUAN/WFO , PR, US) observed 0156 UTC 19 March 2019
Temperature: 24.4°C (76°F)
Dewpoint: 18.3°C (65°F) [RH = 69%]
Pressure (altimeter): 30.05 inches Hg (1017.7 mb)
[Sea-level pressure: 1017.4 mb]
Winds: from the SSE (150 degrees) at 3 MPH (3 knots; 1.5 m/s)
Visibility: 10 or more miles (16+ km)
Ceiling: at least 12,000 feet AGL
Clouds: few clouds at 6000 feet AGL
Weather: no significant weather observed at this time

METAR text: TJSJ 190056Z 11005KT 10SM CLR 24/18 A3004 RMK AO2 SLP169 T02390183
Conditions at: TJSJ (SAN JUAN/WFO , PR, US) observed 0056 UTC 19 March 2019
Temperature: 23.9°C (75°F)
Dewpoint: 18.3°C (65°F) [RH = 71%]
Pressure (altimeter): 30.04 inches Hg (1017.4 mb)
[Sea-level pressure: 1016.9 mb]
Winds: from the ESE (110 degrees) at 6 MPH (5 knots; 2.6 m/s)
Visibility: 10 or more miles (16+ km)
Ceiling: at least 12,000 feet AGL
Clouds: sky clear below 12,000 feet AGL
Weather: no significant weather observed at this time

METAR text: TJSJ 182356Z 10008KT 10SM FEW030 25/18 A3002 RMK AO2 SLP164 T02500183 10289 20250 53018
Conditions at: TJSJ (SAN JUAN/WFO , PR, US) observed 2356 UTC 18 March 2019
Temperature: 25.0°C (77°F)
Dewpoint: 18.3°C (65°F) [RH = 66%]
Pressure (altimeter): 30.02 inches Hg (1016.7 mb)
[Sea-level pressure: 1016.4 mb]
Winds: from the E (100 degrees) at 9 MPH (8 knots; 4.1 m/s)
Visibility: 10 or more miles (16+ km)
Ceiling: at least 12,000 feet AGL
Clouds: few clouds at 3000 feet AGL
Weather: no significant weather observed at this time

METAR text: TJSJ 182256Z 10011KT 10SM FEW035 SCT065 SCT120 26/18 A3000 RMK AO2 SLP157 T02560178
Conditions at: TJSJ (SAN JUAN/WFO , PR, US) observed 2256 UTC 18 March 2019
Temperature: 25.6°C (78°F)
Dewpoint: 17.8°C (64°F) [RH = 62%]
Pressure (altimeter): 30.00 inches Hg (1016.0 mb)
[Sea-level pressure: 1015.7 mb]
Winds: from the E (100 degrees) at 13 MPH (11 knots; 5.7 m/s)
Visibility: 10 or more miles (16+ km)
Ceiling: at least 12,000 feet AGL
Clouds: few clouds at 3500 feet AGL
scattered clouds at 6500 feet AGL
scattered clouds at 12000 feet AGL
Weather: no significant weather observed at this time

METAR text: TJSJ 182156Z 09014KT 10SM FEW035 SCT060 27/18 A2998 RMK AO2 SLP151 T02720183
Conditions at: TJSJ (SAN JUAN/WFO , PR, US) observed 2156 UTC 18 March 2019
Temperature: 27.2°C (81°F)
Dewpoint: 18.3°C (65°F) [RH = 58%]
Pressure (altimeter): 29.98 inches Hg (1015.3 mb)
[Sea-level pressure: 1015.1 mb]
Winds: from the E (90 degrees) at 16 MPH (14 knots; 7.2 m/s)
Visibility: 10 or more miles (16+ km)
Ceiling: at least 12,000 feet AGL
Clouds: few clouds at 3500 feet AGL
scattered clouds at 6000 feet AGL
Weather: no significant weather observed at this time

METAR text: TJSJ 182056Z 09015KT 10SM FEW038 SCT065 28/18 A2997 RMK AO2 SLP146 T02830183 56012
Conditions at: TJSJ (SAN JUAN/WFO , PR, US) observed 2056 UTC 18 March 2019
Temperature: 28.3°C (83°F)
Dewpoint: 18.3°C (65°F) [RH = 55%]
Pressure (altimeter): 29.97 inches Hg (1015.0 mb)
[Sea-level pressure: 1014.6 mb]
Winds: from the E (90 degrees) at 17 MPH (15 knots; 7.7 m/s)
Visibility: 10 or more miles (16+ km)
Ceiling: at least 12,000 feet AGL
Clouds: few clouds at 3800 feet AGL
scattered clouds at 6500 feet AGL
Weather: no significant weather observed at this time

METAR text: TJSJ 181956Z 10009KT 10SM FEW035 SCT050 SCT070 28/18 A2997 RMK AO2 SLP149 T02830183
Conditions at: TJSJ (SAN JUAN/WFO , PR, US) observed 1956 UTC 18 March 2019
Temperature: 28.3°C (83°F)
Dewpoint: 18.3°C (65°F) [RH = 55%]
Pressure (altimeter): 29.97 inches Hg (1015.0 mb)
[Sea-level pressure: 1014.9 mb]
Winds: from the E (100 degrees) at 10 MPH (9 knots; 4.6 m/s)
Visibility: 10 or more miles (16+ km)
Ceiling: at least 12,000 feet AGL
Clouds: few clouds at 3500 feet AGL
scattered clouds at 5000 feet AGL
scattered clouds at 7000 feet AGL
Weather: no significant weather observed at this time

Forecast for: TJSJ (SAN JUAN/WFO , PR, US)
Text: TJSJ 200524Z 2006/2106 00000KT P6SM SCT040 SCT060
Forecast period: 0600 to 1300 UTC 20 March 2019
Forecast type: FROM: standard forecast or significant change
Winds: calm
Visibility: 6 or more miles 10+ km)
Ceiling: at least 12,000 feet AGL
Clouds: scattered clouds at 4000 feet AGL
scattered clouds at 6000 feet AGL
Weather: no significant weather forecast for this period
Text: FM201300 11010KT P6SM VCSH FEW030 SCT045
Forecast period: 1300 to 2200 UTC 20 March 2019
Forecast type: FROM: standard forecast or significant change
Winds: from the ESE (110 degrees) at 12 MPH (10 knots; 5.1 m/s)
Visibility: 6 or more miles 10+ km)
Ceiling: at least 12,000 feet AGL
Clouds: few clouds at 3000 feet AGL
scattered clouds at 4500 feet AGL
Weather: VCSH  (showers in vicinity)
Text: FM202200 VRB03KT P6SM FEW025
Forecast period: 2200 UTC 20 March 2019 to 0600 UTC 21 March 2019
Forecast type: FROM: standard forecast or significant change
Winds: variable direction winds at 3 MPH (3 knots; 1.5 m/s)
Visibility: 6 or more miles 10+ km)
Ceiling: at least 12,000 feet AGL
Clouds: few clouds at 2500 feet AGL
Weather: no significant weather forecast for this period